createdAt,value
2022-08-17T00:00:35.100Z,79.595947
2022-08-17T00:01:38.520Z,79.492188
2022-08-17T00:02:48.528Z,80.200195
2022-08-17T00:03:58.148Z,81.506348
2022-08-17T00:05:05.831Z,81.506348
2022-08-17T00:06:15.517Z,80.603027
2022-08-17T00:07:24.174Z,80.9021
2022-08-17T00:08:32.903Z,82.312012
2022-08-17T00:09:42.598Z,81.304932
2022-08-17T00:10:51.237Z,81.408691
2022-08-17T00:12:42.401Z,81.103516
2022-08-17T00:13:11.564Z,81.304932
2022-08-17T00:14:19.243Z,81.103516
2022-08-17T00:15:29.930Z,80.9021
2022-08-17T00:16:53.448Z,81.005859
2022-08-17T00:17:48.230Z,81.304932
2022-08-17T00:19:04.191Z,80.841064
2022-08-17T00:20:05.566Z,80.841064
2022-08-17T00:21:15.249Z,82.354736
2022-08-17T00:22:33.352Z,81.549072
2022-08-17T00:23:34.572Z,82.049561
2022-08-17T00:24:45.272Z,81.951904
2022-08-17T00:25:55.018Z,82.250977
2022-08-17T00:27:04.713Z,82.653809
2022-08-17T00:28:13.416Z,83.056641
2022-08-17T00:29:23.078Z,83.197021
2022-08-17T00:30:31.786Z,83.502197
2022-08-17T00:31:42.444Z,83.80127
2022-08-17T00:33:10.301Z,84.106445
2022-08-17T00:34:02.770Z,83.703613
2022-08-17T00:35:11.411Z,84.106445
2022-08-17T00:36:20.087Z,84.04541
2022-08-17T00:37:28.859Z,83.843994
2022-08-17T00:38:37.500Z,83.337402
2022-08-17T00:39:47.259Z,82.733154
2022-08-17T00:40:59.116Z,82.025146
2022-08-17T00:42:03.544Z,82.226562
2022-08-17T00:43:13.279Z,81.726074
2022-08-17T00:44:22.002Z,81.420898
2022-08-17T00:45:31.641Z,82.330322
2022-08-17T00:46:41.358Z,82.092285
2022-08-17T00:47:51.062Z,82.696533
2022-08-17T00:49:00.779Z,81.585693
2022-08-17T00:50:09.492Z,81.182861
2022-08-17T00:51:18.156Z,82.189941
2022-08-17T00:52:26.864Z,82.293701
2022-08-17T00:53:35.574Z,81.988525
2022-08-17T00:54:45.242Z,82.293701
2022-08-17T00:55:53.881Z,81.787109
2022-08-17T00:57:02.560Z,82.092285
2022-08-17T00:58:12.257Z,82.495117
2022-08-17T00:59:21.929Z,82.836914
2022-08-17T01:00:31.656Z,83.740234
2022-08-17T01:01:40.405Z,83.947754
2022-08-17T01:02:50.067Z,83.947754
2022-08-17T01:03:59.845Z,83.239746
2022-08-17T01:05:09.395Z,82.635498
2022-08-17T01:06:18.321Z,82.330322
2022-08-17T01:07:27.974Z,82.330322
2022-08-17T01:08:36.661Z,82.226562
2022-08-17T01:09:45.338Z,82.025146
2022-08-17T01:10:57.719Z,82.025146
2022-08-17T01:12:02.703Z,82.434082
2022-08-17T01:13:13.418Z,82.93457
2022-08-17T01:14:22.077Z,83.538818
2022-08-17T01:15:31.823Z,83.239746
2022-08-17T01:16:40.487Z,84.350586
2022-08-17T01:17:49.219Z,85.455322
2022-08-17T01:18:58.917Z,84.552002
2022-08-17T01:20:06.588Z,83.581543
2022-08-17T01:21:15.262Z,84.490967
2022-08-17T01:22:25.061Z,84.490967
2022-08-17T01:23:33.711Z,83.740234
2022-08-17T01:24:43.466Z,83.239746
2022-08-17T01:25:52.129Z,83.337402
2022-08-17T01:27:00.826Z,83.441162
2022-08-17T01:28:11.540Z,82.635498
2022-08-17T01:29:22.241Z,82.836914
2022-08-17T01:30:57.548Z,82.873535
2022-08-17T01:31:42.613Z,82.775879
2022-08-17T01:32:51.480Z,82.568359
2022-08-17T01:34:02.038Z,82.672119
2022-08-17T01:35:10.822Z,82.366943
2022-08-17T01:36:19.559Z,82.470703
2022-08-17T01:37:29.190Z,82.470703
2022-08-17T01:38:37.931Z,82.470703
2022-08-17T01:39:45.688Z,82.672119
2022-08-17T01:40:57.429Z,82.873535
2022-08-17T01:42:03.993Z,82.672119
2022-08-17T01:43:14.677Z,82.775879
2022-08-17T01:44:24.366Z,82.775879
2022-08-17T01:45:33.117Z,82.775879
2022-08-17T01:46:42.825Z,82.672119
2022-08-17T01:47:50.508Z,82.672119
2022-08-17T01:48:58.194Z,82.568359
2022-08-17T01:50:06.895Z,82.977295
2022-08-17T01:51:15.573Z,82.775879
2022-08-17T01:52:25.282Z,83.074951
2022-08-17T01:53:33.927Z,83.276367
2022-08-17T01:54:43.608Z,83.178711
2022-08-17T01:55:53.323Z,83.117676
2022-08-17T01:57:02.037Z,83.81958
2022-08-17T01:58:09.734Z,83.92334
2022-08-17T01:59:19.441Z,84.124756
2022-08-17T02:00:28.219Z,84.631348
2022-08-17T02:01:38.886Z,84.631348
2022-08-17T02:02:48.585Z,84.124756
2022-08-17T02:03:59.551Z,84.124756
2022-08-17T02:05:07.927Z,84.729004
2022-08-17T02:06:27.396Z,84.228516
2022-08-17T02:07:28.230Z,85.03418
2022-08-17T02:09:02.080Z,84.228516
2022-08-17T02:09:52.698Z,84.228516
2022-08-17T02:10:58.477Z,84.527588
2022-08-17T02:12:37.469Z,85.137939
2022-08-17T02:13:17.835Z,83.81958
2022-08-17T02:14:27.499Z,84.124756
2022-08-17T02:15:36.198Z,84.0271
2022-08-17T02:16:44.895Z,83.520508
2022-08-17T02:17:54.884Z,83.520508
2022-08-17T02:19:03.318Z,83.721924
2022-08-17T02:20:11.985Z,83.721924
2022-08-17T02:21:21.694Z,83.618164
2022-08-17T02:22:31.376Z,83.618164
2022-08-17T02:23:41.101Z,83.618164
2022-08-17T02:24:59.128Z,83.721924
2022-08-17T02:25:58.441Z,84.0271
2022-08-17T02:27:08.149Z,83.618164
2022-08-17T02:28:16.827Z,83.618164
2022-08-17T02:29:25.559Z,83.520508
2022-08-17T02:30:49.937Z,83.520508
2022-08-17T02:31:43.870Z,83.758545
2022-08-17T02:32:53.558Z,83.959961
2022-08-17T02:34:04.274Z,83.862305
2022-08-17T02:35:08.928Z,83.959961
2022-08-17T02:36:18.541Z,84.063721
2022-08-17T02:37:28.197Z,84.16748
2022-08-17T02:38:37.947Z,84.570312
2022-08-17T02:39:46.677Z,85.375977
2022-08-17T02:40:55.322Z,85.986328
2022-08-17T02:42:05.047Z,85.479736
2022-08-17T02:43:12.753Z,85.882568
2022-08-17T02:44:35.613Z,86.486816
2022-08-17T02:45:33.103Z,86.425781
2022-08-17T02:46:41.759Z,85.418701
2022-08-17T02:47:51.477Z,86.022949
2022-08-17T02:49:01.130Z,86.529541
2022-08-17T02:50:08.822Z,85.723877
2022-08-17T02:51:16.534Z,85.418701
2022-08-17T02:52:40.599Z,85.516357
2022-08-17T02:53:36.823Z,85.217285
2022-08-17T02:54:44.494Z,85.217285
2022-08-17T02:55:53.198Z,85.217285
2022-08-17T02:57:02.943Z,85.217285
2022-08-17T02:58:11.647Z,85.217285
2022-08-17T02:59:22.321Z,85.217285
2022-08-17T03:00:31.004Z,85.217285
2022-08-17T03:01:39.808Z,85.418701
2022-08-17T03:02:49.620Z,85.516357
2022-08-17T03:03:58.246Z,85.418701
2022-08-17T03:05:07.881Z,85.620117
2022-08-17T03:06:17.554Z,86.022949
2022-08-17T03:07:26.283Z,86.425781
2022-08-17T03:08:34.965Z,86.932373
2022-08-17T03:09:43.613Z,86.932373
2022-08-17T03:10:52.328Z,86.932373
2022-08-17T03:12:01.986Z,87.036133
2022-08-17T03:13:10.746Z,86.529541
2022-08-17T03:14:19.444Z,86.572266
2022-08-17T03:15:30.107Z,86.37085
2022-08-17T03:16:38.783Z,86.529541
2022-08-17T03:17:48.489Z,86.932373
2022-08-17T03:18:58.158Z,86.633301
2022-08-17T03:20:06.833Z,86.37085
2022-08-17T03:21:16.569Z,86.26709
2022-08-17T03:22:36.367Z,86.37085
2022-08-17T03:23:33.875Z,86.37085
2022-08-17T03:24:43.599Z,86.468506
2022-08-17T03:25:53.703Z,86.468506
2022-08-17T03:27:01.985Z,86.468506
2022-08-17T03:28:11.655Z,86.572266
2022-08-17T03:29:20.352Z,86.669922
2022-08-17T03:30:30.070Z,86.572266
2022-08-17T03:31:37.728Z,86.572266
2022-08-17T03:32:45.388Z,86.669922
2022-08-17T03:33:55.090Z,86.773682
2022-08-17T03:35:04.746Z,86.871338
2022-08-17T03:36:14.460Z,86.773682
2022-08-17T03:37:24.142Z,86.669922
2022-08-17T03:38:39.136Z,86.572266
2022-08-17T03:39:44.560Z,86.669922
2022-08-17T03:40:55.961Z,86.572266
2022-08-17T03:42:02.846Z,86.468506
2022-08-17T03:43:12.534Z,86.468506
2022-08-17T03:44:23.259Z,86.328125
2022-08-17T03:45:32.917Z,86.468506
2022-08-17T03:46:41.619Z,86.224365
2022-08-17T03:47:50.317Z,86.126709
2022-08-17T03:48:59.993Z,86.126709
2022-08-17T03:50:10.366Z,86.126709
2022-08-17T03:51:17.320Z,86.126709
2022-08-17T03:52:27.064Z,86.022949
2022-08-17T03:53:35.756Z,85.925293
2022-08-17T03:54:44.462Z,86.022949
2022-08-17T03:55:53.137Z,85.821533
2022-08-17T03:57:01.827Z,85.723877
2022-08-17T03:58:11.526Z,85.620117
2022-08-17T03:59:20.833Z,85.723877
2022-08-17T04:00:27.893Z,85.925293
2022-08-17T04:01:37.650Z,85.925293
2022-08-17T04:02:46.361Z,85.821533
2022-08-17T04:03:56.105Z,85.821533
2022-08-17T04:05:04.745Z,85.723877
2022-08-17T04:06:13.432Z,85.723877
2022-08-17T04:07:23.152Z,85.620117
2022-08-17T04:08:32.242Z,85.620117
2022-08-17T04:09:41.072Z,85.418701
2022-08-17T04:10:50.785Z,85.375977
2022-08-17T04:12:01.164Z,85.375977
2022-08-17T04:13:09.118Z,85.27832
2022-08-17T04:14:18.880Z,85.479736
2022-08-17T04:15:28.516Z,85.174561
2022-08-17T04:16:39.354Z,85.076904
2022-08-17T04:17:47.055Z,85.076904
2022-08-17T04:18:55.752Z,84.973145
2022-08-17T04:20:05.428Z,84.973145
2022-08-17T04:21:14.114Z,84.869385
2022-08-17T04:22:31.707Z,84.869385
2022-08-17T04:23:33.478Z,84.869385
2022-08-17T04:24:42.181Z,84.973145
2022-08-17T04:25:51.873Z,84.771729
2022-08-17T04:26:58.529Z,84.869385
2022-08-17T04:28:09.461Z,84.667969
2022-08-17T04:29:18.922Z,84.570312
2022-08-17T04:30:27.587Z,84.570312
2022-08-17T04:31:37.312Z,84.527588
2022-08-17T04:32:58.678Z,84.429932
2022-08-17T04:33:55.691Z,84.326172
2022-08-17T04:35:05.357Z,85.235596
2022-08-17T04:36:15.046Z,84.429932
2022-08-17T04:37:24.728Z,84.0271
2022-08-17T04:38:34.431Z,84.228516
2022-08-17T04:39:43.210Z,84.631348
2022-08-17T04:40:51.862Z,84.527588
2022-08-17T04:42:01.576Z,84.228516
2022-08-17T04:43:11.285Z,84.124756
2022-08-17T04:44:28.387Z,84.429932
2022-08-17T04:45:32.868Z,84.527588
2022-08-17T04:46:42.553Z,84.429932
2022-08-17T04:47:49.312Z,84.631348
2022-08-17T04:49:05.822Z,84.527588
2022-08-17T04:50:21.429Z,84.729004
2022-08-17T04:51:33.576Z,84.93042
2022-08-17T04:52:44.531Z,84.93042
2022-08-17T04:53:54.962Z,85.339355
2022-08-17T04:55:03.914Z,84.790039
2022-08-17T04:56:16.291Z,84.790039
2022-08-17T04:57:24.277Z,84.790039
2022-08-17T04:58:32.976Z,84.490967
2022-08-17T04:59:42.668Z,84.588623
2022-08-17T05:00:52.472Z,84.350586
2022-08-17T05:02:02.126Z,84.448242
2022-08-17T05:03:10.958Z,84.350586
2022-08-17T05:04:21.199Z,84.14917
2022-08-17T05:05:31.286Z,83.843994
2022-08-17T05:06:38.983Z,83.843994
2022-08-17T05:07:47.657Z,83.843994
2022-08-17T05:08:57.346Z,83.905029
2022-08-17T05:10:07.037Z,84.106445
2022-08-17T05:11:15.790Z,83.599854
2022-08-17T05:12:24.465Z,83.703613
2022-08-17T05:13:33.161Z,83.502197
2022-08-17T05:14:42.971Z,83.599854
2022-08-17T05:15:51.656Z,83.502197
2022-08-17T05:17:00.364Z,83.398438
2022-08-17T05:18:11.040Z,83.502197
2022-08-17T05:19:20.732Z,83.300781
2022-08-17T05:20:29.463Z,83.398438
2022-08-17T05:21:38.152Z,83.300781
2022-08-17T05:22:47.858Z,83.197021
2022-08-17T05:23:57.537Z,83.361816
2022-08-17T05:25:05.276Z,83.1604
2022-08-17T05:26:19.891Z,83.1604
2022-08-17T05:27:25.605Z,83.1604
2022-08-17T05:28:36.264Z,83.1604
2022-08-17T05:29:44.925Z,83.1604
2022-08-17T05:30:53.601Z,82.958984
2022-08-17T05:32:02.346Z,82.958984
2022-08-17T05:33:12.989Z,82.958984
2022-08-17T05:34:20.675Z,82.855225
2022-08-17T05:35:29.332Z,82.617188
2022-08-17T05:36:43.785Z,82.513428
2022-08-17T05:37:49.691Z,82.312012
2022-08-17T05:39:00.421Z,82.214355
2022-08-17T05:40:09.169Z,82.214355
2022-08-17T05:41:17.797Z,82.214355
2022-08-17T05:42:27.478Z,81.872559
2022-08-17T05:43:36.188Z,81.872559
2022-08-17T05:44:43.864Z,81.469727
2022-08-17T05:45:54.980Z,81.12793
2022-08-17T05:47:02.250Z,81.030273
2022-08-17T05:48:12.924Z,80.828857
2022-08-17T05:49:21.647Z,80.523682
2022-08-17T05:50:31.314Z,80.584717
2022-08-17T05:51:41.078Z,80.084229
2022-08-17T05:52:49.854Z,79.58374
2022-08-17T05:53:57.466Z,79.443359
2022-08-17T05:55:07.187Z,79.742432
2022-08-17T05:56:27.986Z,79.846191
2022-08-17T05:57:25.561Z,79.040527
2022-08-17T05:58:34.246Z,78.839111
2022-08-17T05:59:42.933Z,78.601074
2022-08-17T06:00:52.693Z,79.003906
2022-08-17T06:02:00.331Z,78.601074
2022-08-17T06:03:08.033Z,78.399658
2022-08-17T06:04:17.721Z,78.503418
2022-08-17T06:05:26.403Z,78.863525
2022-08-17T06:06:36.104Z,78.363037
2022-08-17T06:07:44.815Z,78.662109
2022-08-17T06:08:54.529Z,77.722168
2022-08-17T06:10:04.250Z,77.319336
2022-08-17T06:11:12.919Z,76.416016
2022-08-17T06:12:21.599Z,77.124023
2022-08-17T06:13:31.316Z,75.78125
2022-08-17T06:14:40.030Z,76.177979
2022-08-17T06:15:48.711Z,75.274658
2022-08-17T06:16:57.431Z,74.938965
2022-08-17T06:18:06.227Z,74.841309
2022-08-17T06:19:14.950Z,75.042725
2022-08-17T06:20:22.669Z,74.938965
2022-08-17T06:21:32.322Z,74.902344
2022-08-17T06:22:42.088Z,74.603271
2022-08-17T06:23:52.123Z,74.304199
2022-08-17T06:25:00.883Z,73.864746
2022-08-17T06:26:11.650Z,73.864746
2022-08-17T06:27:20.381Z,73.565674
2022-08-17T06:28:30.157Z,73.132324
2022-08-17T06:29:38.072Z,74.432373
2022-08-17T06:30:58.371Z,73.529053
2022-08-17T06:31:58.479Z,71.929932
2022-08-17T06:33:07.187Z,72.296143
2022-08-17T06:34:15.969Z,72.296143
2022-08-17T06:35:28.878Z,71.392822
2022-08-17T06:36:34.441Z,70.758057
2022-08-17T06:37:44.109Z,70.758057
2022-08-17T06:38:52.782Z,70.825195
2022-08-17T06:40:00.516Z,69.525146
2022-08-17T06:41:10.242Z,69.293213
2022-08-17T06:42:54.313Z,69.091797
2022-08-17T06:43:29.656Z,69.86084
2022-08-17T06:44:42.384Z,69.360352
2022-08-17T06:45:46.989Z,68.426514
2022-08-17T06:46:55.712Z,68.029785
2022-08-17T06:48:04.420Z,67.895508
2022-08-17T06:49:14.076Z,67.297363
2022-08-17T06:50:21.823Z,67.06543
2022-08-17T06:51:29.453Z,67.364502
2022-08-17T06:52:56.097Z,67.633057
2022-08-17T06:53:49.822Z,67.529297
2022-08-17T06:54:58.544Z,66.833496
2022-08-17T06:56:07.216Z,65.606689
2022-08-17T06:57:15.897Z,64.874268
2022-08-17T06:58:29.500Z,66.766357
2022-08-17T06:59:53.030Z,63.549805
2022-08-17T07:00:44.000Z,63.421631
2022-08-17T07:01:53.626Z,63.818359
2022-08-17T07:03:02.476Z,62.591553
2022-08-17T07:04:12.303Z,66.046143
2022-08-17T07:05:21.681Z,62.365723
2022-08-17T07:06:30.383Z,63.726807
2022-08-17T07:07:40.066Z,61.407471
2022-08-17T07:08:47.745Z,62.469482
2022-08-17T07:09:55.475Z,60.882568
2022-08-17T07:11:05.186Z,59.564209
2022-08-17T07:12:13.864Z,59.466553
2022-08-17T07:13:23.550Z,57.647705
2022-08-17T07:14:33.223Z,58.416748
2022-08-17T07:15:41.943Z,57.000732
2022-08-17T07:16:51.631Z,60.070801
2022-08-17T07:18:00.594Z,56.47583
2022-08-17T07:19:07.994Z,55.780029
2022-08-17T07:20:17.672Z,55.657959
2022-08-17T07:21:27.381Z,54.736328
2022-08-17T07:22:50.426Z,54.418945
2022-08-17T07:23:47.856Z,54.217529
2022-08-17T07:24:56.549Z,53.796387
2022-08-17T07:26:06.225Z,53.399658
2022-08-17T07:27:14.004Z,53.771973
2022-08-17T07:28:20.688Z,54.064941
2022-08-17T07:29:30.425Z,53.771973
2022-08-17T07:30:45.918Z,52.758789
2022-08-17T07:31:48.786Z,52.532959
2022-08-17T07:32:57.524Z,53.918457
2022-08-17T07:34:06.194Z,53.692627
2022-08-17T07:35:15.909Z,51.519775
2022-08-17T07:36:29.253Z,50.90332
2022-08-17T07:37:33.217Z,50.213623
2022-08-17T07:38:43.097Z,50.384521
2022-08-17T07:39:58.945Z,50.091553
2022-08-17T07:41:01.460Z,50.585938
2022-08-17T07:42:10.142Z,51.074219
2022-08-17T07:43:22.116Z,50.78125
2022-08-17T07:44:29.468Z,50.360107
2022-08-17T07:45:40.124Z,49.475098
2022-08-17T07:46:48.826Z,49.945068
2022-08-17T07:47:57.534Z,49.133301
2022-08-17T07:49:06.275Z,49.035645
2022-08-17T07:50:15.048Z,49.304199
2022-08-17T07:51:24.748Z,50.976562
2022-08-17T07:52:47.586Z,48.516846
2022-08-17T07:53:45.077Z,48.321533
2022-08-17T07:54:53.792Z,48.248291
2022-08-17T07:56:02.500Z,49.54834
2022-08-17T07:57:12.177Z,50.952148
2022-08-17T07:58:20.911Z,50.164795
2022-08-17T07:59:33.322Z,50.286865
2022-08-17T08:00:40.263Z,50.708008
2022-08-17T08:01:49.002Z,51.12915
2022-08-17T08:02:59.697Z,51.617432
2022-08-17T08:04:09.632Z,51.12915
2022-08-17T08:05:25.116Z,51.226807
2022-08-17T08:06:31.056Z,51.745605
2022-08-17T08:07:39.779Z,51.422119
2022-08-17T08:08:48.464Z,50.408936
2022-08-17T08:09:58.180Z,49.694824
2022-08-17T08:11:06.854Z,49.54834
2022-08-17T08:12:16.577Z,48.937988
2022-08-17T08:13:25.261Z,49.108887
2022-08-17T08:14:33.958Z,48.815918
2022-08-17T08:15:44.965Z,47.906494
2022-08-17T08:16:53.356Z,47.192383
2022-08-17T08:18:02.164Z,47.583008
2022-08-17T08:19:10.877Z,48.449707
2022-08-17T08:20:37.931Z,47.930908
2022-08-17T08:21:31.266Z,48.327637
2022-08-17T08:22:39.939Z,47.247314
2022-08-17T08:23:47.605Z,47.637939
2022-08-17T08:24:57.428Z,48.937988
2022-08-17T08:26:06.108Z,48.962402
2022-08-17T08:27:15.791Z,48.345947
2022-08-17T08:28:24.497Z,48.028564
2022-08-17T08:29:33.207Z,47.418213
2022-08-17T08:30:43.043Z,46.826172
2022-08-17T08:31:49.721Z,47.888184
2022-08-17T08:32:58.389Z,46.612549
2022-08-17T08:34:08.090Z,46.313477
2022-08-17T08:35:18.756Z,46.826172
2022-08-17T08:36:56.574Z,46.313477
2022-08-17T08:37:49.394Z,46.099854
2022-08-17T08:38:48.990Z,45.214844
2022-08-17T08:39:57.718Z,45.587158
2022-08-17T08:41:06.359Z,44.561768
2022-08-17T08:42:15.126Z,44.561768
2022-08-17T08:43:24.832Z,44.561768
2022-08-17T08:44:59.198Z,44.732666
2022-08-17T08:45:43.147Z,44.714355
2022-08-17T08:46:52.949Z,43.835449
2022-08-17T08:48:05.079Z,44.146729
2022-08-17T08:49:14.365Z,45.53833
2022-08-17T08:50:30.328Z,45.129395
2022-08-17T08:51:33.737Z,44.830322
2022-08-17T08:52:43.448Z,44.226074
2022-08-17T08:53:51.156Z,43.933105
2022-08-17T08:54:58.829Z,44.030762
2022-08-17T08:56:08.523Z,44.812012
2022-08-17T08:57:25.333Z,45.300293
2022-08-17T08:58:30.872Z,46.258545
2022-08-17T08:59:41.773Z,44.030762
2022-08-17T09:00:47.232Z,44.226074
2022-08-17T09:01:55.996Z,44.812012
2022-08-17T09:03:04.612Z,45.178223
2022-08-17T09:04:24.943Z,44.573975
2022-08-17T09:05:25.025Z,44.18335
2022-08-17T09:06:38.831Z,43.182373
2022-08-17T09:07:43.411Z,43.768311
2022-08-17T09:08:52.114Z,43.75
2022-08-17T09:10:01.789Z,43.261719
2022-08-17T09:11:10.541Z,43.75
2022-08-17T09:12:18.206Z,43.334961
2022-08-17T09:13:25.889Z,42.96875
2022-08-17T09:14:43.232Z,42.578125
2022-08-17T09:15:45.281Z,42.596436
2022-08-17T09:16:54.056Z,43.688965
2022-08-17T09:18:39.626Z,44.592285
2022-08-17T09:19:13.471Z,44.476318
2022-08-17T09:20:27.155Z,44.085693
2022-08-17T09:21:33.764Z,44.18335
2022-08-17T09:22:41.550Z,44.354248
2022-08-17T09:23:49.243Z,44.549561
2022-08-17T09:24:57.935Z,43.261719
2022-08-17T09:26:07.680Z,44.433594
2022-08-17T09:27:16.365Z,43.359375
2022-08-17T09:28:25.282Z,43.652344
2022-08-17T09:29:34.018Z,43.261719
2022-08-17T09:30:42.705Z,43.554688
2022-08-17T09:31:52.477Z,43.261719
2022-08-17T09:33:01.176Z,43.62793
2022-08-17T09:34:09.045Z,42.675781
2022-08-17T09:35:19.758Z,43.75
2022-08-17T09:36:28.523Z,43.261719
2022-08-17T09:37:37.215Z,42.651367
2022-08-17T09:38:45.944Z,42.675781
2022-08-17T09:39:55.749Z,42.382812
2022-08-17T09:41:05.465Z,42.871094
2022-08-17T09:42:14.232Z,43.237305
2022-08-17T09:43:22.943Z,43.432617
2022-08-17T09:44:32.865Z,43.121338
2022-08-17T09:45:41.674Z,42.340088
2022-08-17T09:46:51.323Z,42.926025
2022-08-17T09:47:59.994Z,42.828369
2022-08-17T09:49:09.718Z,42.999268
2022-08-17T09:50:19.408Z,42.901611
2022-08-17T09:51:30.117Z,42.999268
2022-08-17T09:52:39.840Z,43.19458
2022-08-17T09:53:49.848Z,42.41333
2022-08-17T09:54:58.320Z,42.999268
2022-08-17T09:56:07.030Z,42.510986
2022-08-17T09:57:29.619Z,42.590332
2022-08-17T09:58:25.671Z,42.004395
2022-08-17T09:59:38.546Z,41.693115
2022-08-17T10:00:46.083Z,41.497803
2022-08-17T10:01:53.862Z,41.30249
2022-08-17T10:03:03.636Z,41.30249
2022-08-17T10:04:12.460Z,41.204834
2022-08-17T10:05:20.155Z,40.930176
2022-08-17T10:06:28.835Z,41.63208
2022-08-17T10:07:37.599Z,41.656494
2022-08-17T10:08:47.349Z,42.260742
2022-08-17T10:09:56.076Z,42.578125
2022-08-17T10:11:03.823Z,42.614746
2022-08-17T10:12:13.516Z,43.615723
2022-08-17T10:13:24.133Z,44.244385
2022-08-17T10:14:36.123Z,44.854736
2022-08-17T10:15:43.530Z,45.147705
2022-08-17T10:16:53.211Z,45.495605
2022-08-17T10:18:02.929Z,47.821045
2022-08-17T10:19:10.678Z,43.493652
2022-08-17T10:20:18.439Z,43.670654
2022-08-17T10:21:28.141Z,43.670654
2022-08-17T10:22:37.829Z,42.871094
2022-08-17T10:23:45.499Z,43.432617
2022-08-17T10:25:01.854Z,42.553711
2022-08-17T10:26:03.893Z,41.949463
2022-08-17T10:27:12.583Z,42.242432
2022-08-17T10:28:20.671Z,41.75415
2022-08-17T10:29:29.989Z,41.729736
2022-08-17T10:30:40.653Z,41.63208
2022-08-17T10:31:49.518Z,41.827393
2022-08-17T10:32:59.233Z,41.247559
2022-08-17T10:34:08.902Z,41.442871
2022-08-17T10:35:17.589Z,41.149902
2022-08-17T10:36:27.302Z,42.004395
2022-08-17T10:37:35.135Z,41.693115
2022-08-17T10:38:42.822Z,40.600586
2022-08-17T10:39:53.131Z,40.130615
2022-08-17T10:41:01.208Z,41.320801
2022-08-17T10:42:10.899Z,40.930176
2022-08-17T10:43:20.620Z,41.320801
2022-08-17T10:44:37.707Z,41.320801
2022-08-17T10:45:40.981Z,40.911865
2022-08-17T10:46:50.679Z,40.911865
2022-08-17T10:48:05.000Z,40.698242
2022-08-17T10:49:11.044Z,40.112305
2022-08-17T10:50:20.746Z,40.893555
2022-08-17T10:51:29.451Z,40.911865
2022-08-17T10:52:38.141Z,40.795898
2022-08-17T10:53:46.817Z,40.716553
2022-08-17T10:54:57.978Z,40.814209
2022-08-17T10:56:05.207Z,41.107178
2022-08-17T10:57:14.918Z,41.320801
2022-08-17T10:58:24.601Z,41.540527
2022-08-17T10:59:33.312Z,41.247559
2022-08-17T11:00:42.111Z,41.656494
2022-08-17T11:01:49.746Z,42.047119
2022-08-17T11:02:58.429Z,41.577148
2022-08-17T11:04:08.129Z,41.851807
2022-08-17T11:05:17.821Z,41.363525
2022-08-17T11:06:25.534Z,41.851807
2022-08-17T11:07:35.207Z,42.730713
2022-08-17T11:08:43.890Z,42.315674
2022-08-17T11:09:52.624Z,42.999268
2022-08-17T11:11:02.418Z,41.809082
2022-08-17T11:12:11.101Z,41.320801
2022-08-17T11:13:20.827Z,41.027832
2022-08-17T11:14:28.534Z,41.223145
2022-08-17T11:15:38.247Z,41.400146
2022-08-17T11:16:48.012Z,40.911865
2022-08-17T11:17:56.694Z,40.423584
2022-08-17T11:19:06.420Z,40.447998
2022-08-17T11:20:15.146Z,40.325928
2022-08-17T11:21:23.867Z,41.009521
2022-08-17T11:22:33.633Z,40.130615
2022-08-17T11:23:41.253Z,40.423584
2022-08-17T11:24:50.969Z,40.307617
2022-08-17T11:25:58.691Z,39.703369
2022-08-17T11:27:07.436Z,39.605713
2022-08-17T11:28:18.083Z,40.484619
2022-08-17T11:29:25.779Z,40.289307
2022-08-17T11:30:35.435Z,40.075684
2022-08-17T11:31:44.122Z,39.782715
2022-08-17T11:32:54.594Z,39.080811
2022-08-17T11:34:03.580Z,38.7146
2022-08-17T11:35:12.418Z,38.909912
2022-08-17T11:36:21.125Z,38.812256
2022-08-17T11:37:30.828Z,39.215088
2022-08-17T11:38:39.504Z,40.600586
2022-08-17T11:39:49.251Z,39.819336
2022-08-17T11:40:59.047Z,39.819336
2022-08-17T11:42:07.794Z,40.19165
2022-08-17T11:43:17.478Z,39.4104
2022-08-17T11:44:26.164Z,41.259766
2022-08-17T11:45:34.871Z,39.39209
2022-08-17T11:46:44.566Z,39.569092
2022-08-17T11:48:16.303Z,39.257812
2022-08-17T11:49:04.934Z,38.189697
2022-08-17T11:50:14.663Z,38.092041
2022-08-17T11:51:23.319Z,38.482666
2022-08-17T11:52:33.037Z,38.40332
2022-08-17T11:53:40.729Z,38.7146
2022-08-17T11:54:48.456Z,39.587402
2022-08-17T11:55:58.189Z,38.7146
2022-08-17T11:57:06.860Z,38.500977
2022-08-17T11:58:15.586Z,38.983154
2022-08-17T11:59:25.295Z,38.574219
2022-08-17T12:00:33.969Z,38.769531
2022-08-17T12:01:43.716Z,37.701416
2022-08-17T12:02:51.493Z,37.915039
2022-08-17T12:03:59.310Z,37.915039
2022-08-17T12:05:11.984Z,37.915039
2022-08-17T12:06:18.611Z,37.799072
2022-08-17T12:07:28.252Z,37.219238
2022-08-17T12:08:36.923Z,37.390137
2022-08-17T12:09:45.627Z,37.408447
2022-08-17T12:10:55.314Z,38.574219
2022-08-17T12:12:12.206Z,37.524414
2022-08-17T12:13:12.653Z,37.896729
2022-08-17T12:14:29.486Z,37.316895
2022-08-17T12:15:32.998Z,37.219238
2022-08-17T12:16:41.739Z,37.683105
2022-08-17T12:17:49.436Z,37.121582
2022-08-17T12:18:58.138Z,37.426758
2022-08-17T12:20:06.876Z,38.500977
2022-08-17T12:21:16.619Z,37.817383
2022-08-17T12:22:24.324Z,37.915039
2022-08-17T12:23:34.003Z,38.305664
2022-08-17T12:24:43.686Z,37.60376
2022-08-17T12:25:51.377Z,38.07373
2022-08-17T12:27:00.131Z,37.084961
2022-08-17T12:28:10.011Z,37.084961
2022-08-17T12:29:35.379Z,37.646484
2022-08-17T12:30:31.235Z,36.560059
2022-08-17T12:31:39.941Z,36.560059
2022-08-17T12:32:49.648Z,36.05957
2022-08-17T12:33:58.320Z,35.882568
2022-08-17T12:35:06.995Z,36.273193
2022-08-17T12:36:15.668Z,36.273193
2022-08-17T12:37:24.335Z,35.803223
2022-08-17T12:38:33.688Z,36.035156
2022-08-17T12:39:40.910Z,36.767578
2022-08-17T12:40:48.478Z,38.635254
2022-08-17T12:42:02.067Z,38.067627
2022-08-17T12:43:07.827Z,38.458252
2022-08-17T12:44:16.652Z,37.95166
2022-08-17T12:45:25.338Z,37.353516
2022-08-17T12:46:35.115Z,37.835693
2022-08-17T12:47:44.728Z,37.426758
2022-08-17T12:48:59.488Z,37.121582
2022-08-17T12:50:01.123Z,37.896729
2022-08-17T12:51:10.824Z,36.907959
2022-08-17T12:52:20.517Z,35.821533
2022-08-17T12:53:29.244Z,35.9375
2022-08-17T12:54:38.965Z,36.132812
2022-08-17T12:55:47.688Z,36.828613
2022-08-17T12:56:57.363Z,36.340332
2022-08-17T12:58:05.073Z,36.053467
2022-08-17T12:59:13.742Z,36.340332
2022-08-17T13:00:24.408Z,36.340332
2022-08-17T13:01:33.152Z,36.322021
2022-08-17T13:02:41.788Z,35.919189
2022-08-17T13:03:50.466Z,35.223389
2022-08-17T13:04:59.154Z,34.539795
2022-08-17T13:06:08.863Z,35.028076
2022-08-17T13:07:16.611Z,33.959961
2022-08-17T13:08:26.364Z,34.442139
2022-08-17T13:09:40.614Z,34.655762
2022-08-17T13:10:45.871Z,35.076904
2022-08-17T13:11:55.560Z,35.467529